logo



Minimumtemperatur heute 8.6     Maximumtemperatur heute 24.6
Datum Zeit
MEZ
Lufttemperatur
C
Windrichtung
Grad
Wind Mittel
Km/h
Wind Min
Km/h
Wind Max
Km/h
rel. Feuchte
%
2021-09-25 19:50:00 16.5 222 0.0 0.0 0.6 86
2021-09-25 19:45:00 16.6 274 0.0 0.0 0.8 86
2021-09-25 19:40:00 16.6 284 0.3 0.2 2.1 85
2021-09-25 19:35:00 16.7 290 0.3 0.0 3.1 85
2021-09-25 19:30:00 16.9 328 0.0 0.0 1.0 84
2021-09-25 19:25:00 17.1 331 0.5 0.4 3.4 84
2021-09-25 19:20:00 17.3 356 0.7 0.8 4.6 83
2021-09-25 19:15:00 17.3 272 0.5 0.9 2.4 82
2021-09-25 19:10:00 17.3 258 0.6 0.7 3.8 83
2021-09-25 19:05:00 17.4 233 0.3 0.0 2.3 83
2021-09-25 19:00:00 17.5 244 0.7 0.2 3.7 83
2021-09-25 18:55:00 17.3 260 0.4 0.0 5.4 84
2021-09-25 18:50:00 17.4 268 0.4 0.7 3.1 83
2021-09-25 18:45:00 17.6 261 0.4 0.0 3.3 82
2021-09-25 18:40:00 17.6 251 0.6 1.2 2.7 82
2021-09-25 18:35:00 17.5 246 0.1 0.0 2.5 80
2021-09-25 18:30:00 17.6 223 0.0 0.0 1.1 78
2021-09-25 18:25:00 17.8 225 0.1 0.0 1.4 79
2021-09-25 18:20:00 18.2 229 0.3 0.3 1.6 78
2021-09-25 18:15:00 18.3 227 0.0 0.0 0.2 78
2021-09-25 18:10:00 18.4 221 0.0 0.0 0.0 77
2021-09-25 18:05:00 18.6 221 0.0 0.0 0.0 76
2021-09-25 18:00:00 19.0 220 0.0 0.0 0.0 76
2021-09-25 17:55:00 19.4 222 0.0 0.0 0.0 76
2021-09-25 17:50:00 20.2 214 0.0 0.0 0.0 72
2021-09-25 17:45:00 20.6 214 0.0 0.0 0.0 71
2021-09-25 17:40:00 21.1 211 0.0 0.0 0.0 71
2021-09-25 17:35:00 21.5 211 0.0 0.0 0.0 68
2021-09-25 17:30:00 21.6 219 0.0 0.0 0.3 68
2021-09-25 17:25:00 21.7 221 0.0 0.0 0.2 66
2021-09-25 17:20:00 21.6 222 0.3 0.0 2.9 65
2021-09-25 17:15:00 21.9 230 0.6 0.2 3.7 61
2021-09-25 17:10:00 23.6 238 0.0 0.0 0.0 59
2021-09-25 17:05:00 23.5 195 0.0 0.0 1.4 58
2021-09-25 17:00:00 23.3 176 0.8 0.0 5.1 56
2021-09-25 16:55:00 23.3 169 1.3 3.7 5.6 54
2021-09-25 16:50:00 23.6 171 1.0 2.2 5.2 54
2021-09-25 16:45:00 23.7 163 0.8 1.6 3.8 54
2021-09-25 16:40:00 24.3 172 0.3 0.1 1.9 56
2021-09-25 16:35:00 24.2 168 0.4 0.1 2.2 54
2021-09-25 16:30:00 24.2 181 0.1 0.0 2.2 60
2021-09-25 16:25:00 24.0 220 0.3 0.0 2.0 62
2021-09-25 16:20:00 24.6 225 0.1 0.0 1.5 55
2021-09-25 16:15:00 24.5 217 0.0 0.0 0.3 54
2021-09-25 16:10:00 23.8 225 0.1 0.0 1.7 52
2021-09-25 16:05:00 23.4 245 0.4 1.0 2.1 50
2021-09-25 16:00:00 23.3 244 0.4 0.4 2.1 51
2021-09-25 15:55:00 23.1 232 0.3 0.2 1.8 52
2021-09-25 15:50:00 22.8 235 0.7 1.7 3.6 52
2021-09-25 15:45:00 22.8 233 0.8 2.6 3.5 52
2021-09-25 15:40:00 23.1 249 0.8 2.4 3.3 49
2021-09-25 15:35:00 23.2 249 0.6 1.7 2.5 49
2021-09-25 15:30:00 23.1 248 0.5 1.7 2.3 49
2021-09-25 15:25:00 22.9 245 0.8 1.9 3.5 49
2021-09-25 15:20:00 22.8 246 0.9 2.9 3.4 50
2021-09-25 15:15:00 22.8 248 1.0 3.1 3.8 51
2021-09-25 15:10:00 22.6 249 0.8 2.2 3.8 50
2021-09-25 15:05:00 22.4 247 0.7 2.1 3.2 51
2021-09-25 15:00:00 22.2 245 1.1 3.1 4.7 52
2021-09-25 14:55:00 22.0 242 1.2 4.2 4.9 53
2021-09-25 14:50:00 21.9 240 1.3 4.2 4.9 55
2021-09-25 14:45:00 21.9 248 1.1 3.3 4.6 53
2021-09-25 14:40:00 22.1 251 0.8 2.1 4.0 55
2021-09-25 14:35:00 22.3 241 0.2 0.0 2.1 54
2021-09-25 14:30:00 22.2 244 0.4 0.1 2.3 53
2021-09-25 14:25:00 22.0 256 0.4 0.8 2.3 53
2021-09-25 14:20:00 22.0 251 0.4 0.3 2.7 54
2021-09-25 14:15:00 21.7 258 0.8 1.6 4.3 55
2021-09-25 14:10:00 21.6 250 1.2 2.7 5.2 55
2021-09-25 14:05:00 21.6 247 1.2 3.2 4.8 54
2021-09-25 14:00:00 21.6 238 1.2 3.3 5.2 56
2021-09-25 13:55:00 21.8 236 0.7 1.5 3.9 50
2021-09-25 13:50:00 22.0 241 0.4 1.0 2.1 50
2021-09-25 13:45:00 22.3 231 0.2 0.0 1.3 50
2021-09-25 13:40:00 22.5 225 0.1 0.0 1.1 49
2021-09-25 13:35:00 22.5 235 0.1 0.0 1.0 49
2021-09-25 13:30:00 22.4 210 0.1 0.0 2.6 49
2021-09-25 13:25:00 22.4 164 0.0 0.0 0.6 49
2021-09-25 13:20:00 21.8 233 0.0 0.0 0.2 49
2021-09-25 13:15:00 21.5 232 0.0 0.0 0.2 50
2021-09-25 13:10:00 21.0 231 0.1 0.0 1.2 51
2021-09-25 13:05:00 20.6 225 0.5 0.2 3.9 52
2021-09-25 13:00:00 20.6 248 0.4 0.0 3.6 55
2021-09-25 12:55:00 20.4 230 0.1 0.0 1.1 54
2021-09-25 12:50:00 20.0 235 0.2 0.0 1.9 57
2021-09-25 12:45:00 19.6 234 0.6 1.4 2.5 62
2021-09-25 12:40:00 19.4 239 0.6 1.3 3.6 64
2021-09-25 12:35:00 19.2 243 1.0 2.6 4.8 65
2021-09-25 12:30:00 19.2 252 1.1 2.4 4.7 66
2021-09-25 12:25:00 19.0 250 1.1 2.8 5.0 65
2021-09-25 12:20:00 18.8 236 1.6 4.3 6.9 66
2021-09-25 12:15:00 18.6 243 1.2 3.6 6.1 64
2021-09-25 12:10:00 18.5 245 0.8 1.9 4.8 63
2021-09-25 12:05:00 18.5 250 0.6 1.2 3.1 65
2021-09-25 12:00:00 18.6 250 0.2 0.1 1.9 65
2021-09-25 11:55:00 18.4 246 0.1 0.0 1.8 63
2021-09-25 11:50:00 18.2 238 0.2 0.1 1.3 62
2021-09-25 11:45:00 18.1 239 0.0 0.0 0.6 63
2021-09-25 11:40:00 17.8 238 0.0 0.0 0.3 64
2021-09-25 11:35:00 17.3 243 0.3 0.0 2.3 67
2021-09-25 11:30:00 17.1 252 0.5 0.6 2.6 69
2021-09-25 11:25:00 17.0 255 0.3 0.3 2.2 71
2021-09-25 11:20:00 16.7 255 0.6 1.4 3.1 70
2021-09-25 11:15:00 16.5 243 0.9 2.3 3.8 72
2021-09-25 11:10:00 16.4 252 0.7 0.9 3.6 73
2021-09-25 11:05:00 16.3 243 0.6 0.6 3.5 72
2021-09-25 11:00:00 16.1 243 0.8 1.9 3.9 74
2021-09-25 10:55:00 15.9 245 0.8 1.6 4.4 74
2021-09-25 10:50:00 15.8 247 1.0 1.3 5.0 74
2021-09-25 10:45:00 15.8 238 0.4 0.1 2.6 74
2021-09-25 10:40:00 15.8 245 0.1 0.0 1.5 74
2021-09-25 10:35:00 15.6 221 0.0 0.0 0.6 74
2021-09-25 10:30:00 15.5 237 0.1 0.0 1.7 78
2021-09-25 10:25:00 15.1 235 0.4 0.0 3.2 78
2021-09-25 10:20:00 15.0 251 0.9 2.4 4.3 79
2021-09-25 10:15:00 14.8 257 0.9 2.1 4.6 79
2021-09-25 10:10:00 14.6 246 0.7 1.5 4.4 79
2021-09-25 10:05:00 14.5 253 1.1 2.4 5.2 79
2021-09-25 10:00:00 14.4 237 0.5 0.0 3.8 79
2021-09-25 09:55:00 14.4 234 0.2 0.0 1.8 80
2021-09-25 09:50:00 14.2 227 0.0 0.0 1.0 82
2021-09-25 09:45:00 13.8 239 0.1 0.0 1.9 85
2021-09-25 09:40:00 13.5 244 0.3 0.0 2.9 87
2021-09-25 09:35:00 13.1 244 0.6 1.2 3.6 88
2021-09-25 09:30:00 12.9 244 0.7 1.1 3.9 90
2021-09-25 09:25:00 12.6 237 0.5 0.8 3.3 92
2021-09-25 09:20:00 12.4 243 0.3 0.0 2.2 94
2021-09-25 09:15:00 12.1 233 0.4 0.0 2.5 95
2021-09-25 09:10:00 11.9 230 0.3 0.2 2.9 95
2021-09-25 09:05:00 11.7 231 0.4 0.3 2.9 95
2021-09-25 09:00:00 11.4 227 0.7 0.5 3.7 95
2021-09-25 08:55:00 11.3 223 0.4 0.0 3.4 95
2021-09-25 08:50:00 11.1 184 0.1 0.0 2.1 95
2021-09-25 08:45:00 11.0 205 0.3 0.0 3.4 95
2021-09-25 08:40:00 10.6 217 0.1 0.0 3.2 95
2021-09-25 08:35:00 10.7 218 0.1 0.0 2.3 95
2021-09-25 08:30:00 10.6 206 0.1 0.0 1.9 95
2021-09-25 08:25:00 10.5 139 0.0 0.0 0.1 95
2021-09-25 08:20:00 10.4 217 0.3 0.0 3.5 95
2021-09-25 08:15:00 10.4 163 0.7 0.1 5.5 95
2021-09-25 08:10:00 10.4 156 0.4 0.4 3.3 95
2021-09-25 08:05:00 10.3 153 0.8 0.0 5.3 95
2021-09-25 08:00:00 10.3 156 0.4 0.2 3.3 95
2021-09-25 07:55:00 10.2 130 0.5 0.3 3.3 95
www.zamg.ac.at

klagenfurt@zamg.ac.at